< < Back
Terminal Aerodrome Forecast


Current Version              Previous Versions:   1  2  3  4  5  6  7  8  9  

Terminal Aerodrome Forecast

021
FTUS44 KBMX 291132
TAFTCL
TAF
KTCL 291132Z 2912/3012 20003KT P6SM BKN025
     FM291500 23008KT P6SM VCSH BKN035
     FM291800 25008KT P6SM VCTS BKN050CB
     FM300200 00000KT P6SM SCT025=

Latest METAR

517
SAUS70 KWBC 300100
MTRTCL
METAR KTCL 300053Z 25006KT 10SM CLR 28/23 A2996 RMK AO2 SLP144
T02780233


USA.gov is the U.S. government's official web portal to all federal, state and local government web resources and services.